Terminal Aerodrome Forecast
Issued by NWS Wilmington, OH

Current Version | Previous Version | Graphics & Text | Print | Product List | Glossary On
Versions: 1 2 3 4 5 6 7 8 9 10 11 12 13 14 15 16 17 18 19 20 21 22 23 24
524
FTUS41 KILN 201136
TAFCVG
TAF
KCVG 201136Z 2012/2118 08003KT 1/4SM FG VV001
     FM201300 VRB03KT 1/2SM FG BKN010
     FM201500 13004KT 1SM BR BKN020
     FM201600 13004KT P6SM BKN030
     FM201800 14005KT P6SM BKN100
     FM210000 12006KT P6SM BKN250
     FM210900 18005KT P6SM BKN250
     FM211300 19010KT P6SM SCT120 BKN250=

USA.gov is the U.S. government's official web portal to all federal, state and local government web resources and services.